Time;durP1;ratioP1;P1;durP2;ratioP2;P2;SDS_P1;SDS_P2;PMS_P1;PMS_P2;Temp;Humidity;BMP_temperature;BMP_pressure;BME280_temperature;BME280_humidity;BME280_pressure;Samples;Min_cycle;Max_cycle;Signal;HPM_P1;HPM_P2
2023/09/08 00:00:41;;;;;;;10.70;9.80;;;18.70;99.90;;;;;;6088489;23;20839;-89
2023/09/08 00:03:06;;;;;;;10.45;9.63;;;18.60;99.90;;;;;;6086432;23;20394;-89
2023/09/08 00:05:32;;;;;;;11.17;10.17;;;18.70;99.90;;;;;;6064521;23;20734;-90
2023/09/08 00:07:58;;;;;;;11.48;10.38;;;18.30;99.90;;;;;;6086977;23;20378;-90
2023/09/08 00:10:23;;;;;;;10.87;9.93;;;18.50;99.90;;;;;;6088423;23;20386;-90
2023/09/08 00:12:49;;;;;;;10.30;9.30;;;18.20;99.90;;;;;;6089256;23;20414;-89
2023/09/08 00:15:15;;;;;;;10.10;9.10;;;18.30;99.90;;;;;;6092763;23;20418;-91
2023/09/08 00:17:40;;;;;;;11.60;9.60;;;18.30;99.90;;;;;;6092962;23;20384;-88
2023/09/08 00:20:08;;;;;;;11.18;10.18;;;18.30;99.90;;;;;;6067738;23;20380;-90
2023/09/08 00:22:34;;;;;;;10.90;9.90;;;18.30;99.90;;;;;;6093369;23;20384;-91
2023/09/08 00:25:00;;;;;;;11.48;10.43;;;18.50;99.90;;;;;;6091218;23;20472;-91
2023/09/08 00:27:25;;;;;;;11.40;10.30;;;18.50;99.90;;;;;;6093290;23;20415;-90
2023/09/08 00:29:51;;;;;;;11.43;10.33;;;18.20;99.90;;;;;;6091242;23;20770;-90
2023/09/08 00:32:16;;;;;;;10.85;9.77;;;18.80;99.90;;;;;;6068890;23;20702;-91
2023/09/08 00:34:42;;;;;;;10.43;9.53;;;18.50;99.90;;;;;;6092090;23;20396;-89
2023/09/08 00:37:09;;;;;;;10.85;9.75;;;18.30;99.90;;;;;;6092246;23;20373;-90
2023/09/08 00:39:36;;;;;;;10.63;9.73;;;18.60;99.90;;;;;;6069009;23;20416;-89
2023/09/08 00:42:02;;;;;;;10.63;9.65;;;18.60;99.90;;;;;;6090988;23;20381;-90
2023/09/08 00:44:27;;;;;;;10.95;9.93;;;18.80;99.90;;;;;;6069090;23;20774;-90
2023/09/08 00:46:53;;;;;;;11.10;9.18;;;18.30;99.90;;;;;;6091201;23;20373;-92
2023/09/08 00:49:20;;;;;;;11.00;10.00;;;18.30;99.90;;;;;;6069133;23;20373;-90
2023/09/08 00:51:46;;;;;;;11.07;9.98;;;18.70;99.90;;;;;;6091699;23;20408;-89
2023/09/08 00:54:11;;;;;;;11.27;10.18;;;18.50;99.90;;;;;;6068789;23;20404;-90
2023/09/08 00:56:38;;;;;;;10.90;9.90;;;18.50;99.90;;;;;;6092760;23;20387;-89
2023/09/08 00:59:05;;;;;;;10.88;9.85;;;18.30;99.90;;;;;;6091716;23;20771;-91
2023/09/08 01:01:31;;;;;;;11.68;10.57;;;18.20;99.90;;;;;;6093047;23;20769;-90
2023/09/08 01:03:57;;;;;;;10.82;9.75;;;18.20;99.90;;;;;;6091155;23;20380;-91
2023/09/08 01:06:23;;;;;;;11.75;10.60;;;18.20;99.90;;;;;;6092849;23;20423;-90
2023/09/08 01:08:50;;;;;;;11.02;9.93;;;18.30;99.90;;;;;;6091303;23;20381;-90
2023/09/08 01:11:19;;;;;;;11.05;10.00;;;18.40;99.90;;;;;;6092911;23;20384;-90
2023/09/08 01:13:45;;;;;;;11.55;10.45;;;18.40;99.90;;;;;;6068007;23;21295;-91
2023/09/08 01:16:10;;;;;;;12.07;10.87;;;18.00;99.90;;;;;;6091754;23;20384;-91
2023/09/08 01:18:37;;;;;;;11.90;10.77;;;18.00;99.90;;;;;;6069020;23;20469;-90
2023/09/08 01:21:42;;;;;;;11.68;10.55;;;18.10;99.90;;;;;;6091139;23;20408;-90
2023/09/08 01:24:28;;;;;;;12.20;11.07;;;18.00;99.90;;;;;;6093023;23;20400;-90
2023/09/08 01:26:54;;;;;;;12.07;10.98;;;17.90;99.90;;;;;;6068835;23;20476;-90
2023/09/08 01:29:24;;;;;;;11.75;10.63;;;17.90;99.90;;;;;;6091565;23;20404;-90
2023/09/08 01:31:50;;;;;;;13.95;11.77;;;18.00;99.90;;;;;;6093010;23;20380;-90
2023/09/08 01:34:16;;;;;;;12.27;11.07;;;17.90;99.90;;;;;;6090997;23;20983;-90
2023/09/08 01:36:42;;;;;;;12.15;11.05;;;18.30;99.90;;;;;;6092998;23;20408;-90
2023/09/08 01:39:08;;;;;;;12.98;11.80;;;17.80;99.90;;;;;;6091531;23;20452;-89
2023/09/08 01:41:33;;;;;;;12.80;11.60;;;17.80;99.90;;;;;;6093367;23;20901;-89
2023/09/08 01:44:00;;;;;;;12.55;11.35;;;18.20;99.90;;;;;;6070040;23;20867;-90
2023/09/08 01:46:26;;;;;;;12.57;11.45;;;18.00;99.90;;;;;;6069628;23;20927;-90
2023/09/08 01:48:51;;;;;;;12.40;11.40;;;17.90;99.90;;;;;;6094511;23;20403;-89
2023/09/08 01:51:17;;;;;;;13.48;12.18;;;17.70;99.90;;;;;;6092908;23;20849;-91
2023/09/08 01:53:43;;;;;;;13.23;12.13;;;17.70;99.90;;;;;;6094593;23;20430;-90
2023/09/08 01:56:09;;;;;;;13.15;11.85;;;17.50;99.90;;;;;;6068637;23;20428;-89
2023/09/08 01:58:35;;;;;;;12.77;11.65;;;17.50;99.90;;;;;;6094627;23;20588;-89
2023/09/08 02:01:05;;;;;;;13.48;12.25;;;17.50;99.90;;;;;;6069005;23;20695;-90
2023/09/08 02:03:34;;;;;;;13.82;12.50;;;17.60;99.90;;;;;;6069869;23;20409;-90
2023/09/08 02:06:00;;;;;;;12.85;11.65;;;17.50;99.90;;;;;;6094100;23;20706;-91
2023/09/08 02:08:25;;;;;;;13.03;11.93;;;17.50;99.90;;;;;;6092708;23;20381;-91
2023/09/08 02:10:51;;;;;;;12.98;11.68;;;17.40;99.90;;;;;;6094521;23;20380;-90
2023/09/08 02:13:17;;;;;;;13.13;12.03;;;17.40;99.90;;;;;;6092361;23;20962;-90
2023/09/08 02:15:42;;;;;;;13.40;12.27;;;17.40;99.90;;;;;;6094707;23;20964;-90
2023/09/08 02:18:09;;;;;;;14.23;12.93;;;17.30;99.90;;;;;;6068822;23;20384;-89
2023/09/08 02:20:34;;;;;;;13.02;11.88;;;17.50;99.90;;;;;;6093839;23;20384;-90
2023/09/08 02:23:05;;;;;;;13.37;12.17;;;17.30;99.90;;;;;;6070341;23;20381;-91
2023/09/08 02:25:30;;;;;;;14.27;12.98;;;17.20;99.90;;;;;;6093042;23;20440;-90
2023/09/08 02:27:56;;;;;;;14.63;13.33;;;17.20;99.90;;;;;;6094856;23;20380;-90
2023/09/08 02:30:21;;;;;;;13.95;12.60;;;17.10;99.90;;;;;;6092332;23;20842;-91
2023/09/08 02:32:47;;;;;;;14.70;13.40;;;17.00;99.90;;;;;;6093971;23;20383;-89
2023/09/08 02:35:13;;;;;;;15.63;14.25;;;17.00;99.90;;;;;;6092390;23;21143;-90
2023/09/08 02:37:38;;;;;;;15.37;13.97;;;16.90;99.90;;;;;;6070065;23;20990;-90
2023/09/08 02:40:06;;;;;;;15.43;13.93;;;16.80;99.90;;;;;;6092891;23;20376;-90
2023/09/08 02:42:31;;;;;;;15.32;14.02;;;16.80;99.90;;;;;;6069621;23;20388;-90
2023/09/08 02:44:57;;;;;;;15.45;13.95;;;17.00;99.90;;;;;;6069896;23;20377;-90
2023/09/08 02:47:22;;;;;;;15.33;14.03;;;16.80;99.90;;;;;;6068352;23;20379;-90
2023/09/08 02:49:48;;;;;;;14.93;13.63;;;17.30;99.90;;;;;;6094466;23;20386;-90
2023/09/08 02:52:14;;;;;;;15.00;13.60;;;16.80;99.90;;;;;;6067961;23;20377;-91
2023/09/08 02:54:39;;;;;;;15.60;14.20;;;16.80;99.90;;;;;;6069604;23;20407;-90
2023/09/08 02:57:05;;;;;;;15.07;13.77;;;16.70;99.90;;;;;;6092562;23;20454;-90
2023/09/08 02:59:31;;;;;;;14.90;13.60;;;16.90;99.90;;;;;;6069613;23;20455;-90
2023/09/08 03:01:56;;;;;;;15.63;14.10;;;16.60;99.90;;;;;;6093222;23;20377;-90
2023/09/08 03:04:22;;;;;;;16.48;14.98;;;16.60;99.90;;;;;;6068778;23;20455;-90
2023/09/08 03:06:47;;;;;;;15.50;14.00;;;16.60;99.90;;;;;;6069718;23;20388;-90
2023/09/08 03:09:13;;;;;;;16.10;14.50;;;16.90;99.90;;;;;;6067984;23;20368;-90
2023/09/08 03:11:39;;;;;;;15.10;13.77;;;16.50;99.90;;;;;;6093712;23;20833;-89
2023/09/08 03:14:04;;;;;;;16.90;15.20;;;16.40;99.90;;;;;;6091786;23;20404;-90
2023/09/08 03:16:30;;;;;;;16.30;14.90;;;16.50;99.90;;;;;;6069440;23;20424;-89
2023/09/08 03:18:55;;;;;;;16.10;14.70;;;16.30;99.90;;;;;;6092225;23;20869;-88
2023/09/08 03:21:21;;;;;;;16.83;15.33;;;16.30;99.90;;;;;;6093297;23;20384;-91
2023/09/08 03:23:47;;;;;;;17.05;15.63;;;16.20;99.90;;;;;;6093057;23;20419;-89
2023/09/08 03:26:13;;;;;;;15.90;14.50;;;16.30;99.90;;;;;;6068080;23;20440;-91
2023/09/08 03:28:39;;;;;;;17.70;15.90;;;16.20;99.90;;;;;;6093718;23;20467;-90
2023/09/08 03:31:05;;;;;;;17.07;15.67;;;16.20;99.90;;;;;;6091564;23;20387;-89
2023/09/08 03:33:31;;;;;;;17.23;15.67;;;16.50;99.90;;;;;;6069105;23;20435;-90
2023/09/08 03:35:57;;;;;;;17.98;16.52;;;16.10;99.90;;;;;;6091875;23;20706;-89
2023/09/08 03:38:23;;;;;;;17.73;16.23;;;16.00;99.90;;;;;;6093388;23;20399;-91
2023/09/08 03:40:48;;;;;;;17.52;15.93;;;16.20;99.90;;;;;;6068940;23;20376;-90
2023/09/08 03:43:14;;;;;;;17.88;16.27;;;16.00;99.90;;;;;;6068515;23;20496;-90
2023/09/08 03:45:41;;;;;;;18.27;16.67;;;15.90;99.90;;;;;;6069341;23;20375;-90
2023/09/08 03:48:06;;;;;;;19.88;18.08;;;15.90;99.90;;;;;;6067554;23;20369;-90
2023/09/08 03:50:32;;;;;;;18.43;16.90;;;15.90;99.90;;;;;;6093748;23;20468;-90
2023/09/08 03:52:58;;;;;;;18.77;17.08;;;15.80;99.90;;;;;;6091671;23;20365;-90
2023/09/08 03:55:24;;;;;;;20.20;18.27;;;15.80;99.90;;;;;;6069143;23;20893;-90
2023/09/08 03:57:49;;;;;;;19.80;18.03;;;16.10;99.90;;;;;;6091907;23;20380;-89
2023/09/08 04:00:20;;;;;;;21.00;19.00;;;15.90;99.90;;;;;;6093210;23;20753;-90
2023/09/08 04:02:46;;;;;;;20.88;19.08;;;15.80;99.90;;;;;;6093304;23;21168;-89
2023/09/08 04:05:11;;;;;;;21.43;19.60;;;15.70;99.90;;;;;;6091508;23;20380;-90
2023/09/08 04:07:37;;;;;;;21.02;19.13;;;16.00;99.90;;;;;;6093467;23;20381;-90
2023/09/08 04:10:03;;;;;;;21.35;19.48;;;15.90;99.90;;;;;;6091290;23;20365;-90
2023/09/08 04:12:29;;;;;;;22.38;20.25;;;15.70;99.90;;;;;;6093186;23;20396;-90
2023/09/08 04:14:55;;;;;;;22.63;20.73;;;16.00;99.90;;;;;;6067394;23;20405;-89
2023/09/08 04:17:20;;;;;;;22.83;20.55;;;15.80;99.90;;;;;;6092819;23;20476;-91
2023/09/08 04:19:46;;;;;;;22.33;20.43;;;15.80;99.90;;;;;;6068694;23;20461;-90
2023/09/08 04:22:11;;;;;;;22.58;20.45;;;15.80;99.90;;;;;;6092384;23;20860;-90
2023/09/08 04:24:38;;;;;;;22.37;20.17;;;16.20;99.90;;;;;;6092869;23;20711;-90
2023/09/08 04:27:04;;;;;;;22.70;20.70;;;15.80;99.90;;;;;;6091008;23;20380;-89
2023/09/08 04:29:30;;;;;;;22.52;20.48;;;15.80;99.90;;;;;;6093043;23;20380;-90
2023/09/08 04:31:55;;;;;;;23.33;21.23;;;15.70;99.90;;;;;;6091149;23;20413;-90
2023/09/08 04:34:21;;;;;;;22.92;20.73;;;15.80;99.90;;;;;;6093272;23;20490;-90
2023/09/08 04:36:46;;;;;;;23.67;21.47;;;15.80;99.90;;;;;;6092004;23;20373;-89
2023/09/08 04:39:13;;;;;;;23.03;20.87;;;15.80;99.90;;;;;;6092824;23;20364;-90
2023/09/08 04:41:39;;;;;;;22.35;20.35;;;15.70;99.90;;;;;;6068921;23;20377;-89
2023/09/08 04:44:05;;;;;;;23.60;21.37;;;15.80;99.90;;;;;;6091472;23;20888;-90
2023/09/08 04:46:31;;;;;;;24.90;22.70;;;15.80;99.90;;;;;;6068474;23;20372;-90
2023/09/08 04:48:56;;;;;;;24.00;21.92;;;15.70;99.90;;;;;;6091214;23;21077;-90
2023/09/08 04:51:22;;;;;;;24.03;21.93;;;15.70;99.90;;;;;;6068982;23;20369;-89
2023/09/08 04:53:48;;;;;;;25.50;22.93;;;16.00;99.90;;;;;;6089251;23;20373;-89
2023/09/08 04:56:13;;;;;;;24.17;22.08;;;15.70;99.90;;;;;;6092430;23;20432;-90
2023/09/08 04:58:39;;;;;;;23.47;21.37;;;15.70;99.90;;;;;;6092119;23;20507;-90
2023/09/08 05:01:05;;;;;;;22.73;20.60;;;15.80;99.90;;;;;;6067582;23;20385;-91
2023/09/08 05:03:31;;;;;;;23.02;20.98;;;15.70;99.90;;;;;;6092787;23;20376;-89
2023/09/08 05:05:57;;;;;;;23.87;21.77;;;15.70;99.90;;;;;;6090993;23;20908;-89
2023/09/08 05:08:22;;;;;;;22.97;20.97;;;15.80;99.90;;;;;;6092165;23;20375;-89
2023/09/08 05:10:48;;;;;;;23.13;20.92;;;15.80;99.90;;;;;;6090603;23;20439;-89
2023/09/08 05:13:15;;;;;;;23.23;21.07;;;15.80;99.90;;;;;;6091471;23;20770;-90
2023/09/08 05:15:42;;;;;;;23.83;21.73;;;15.80;99.90;;;;;;6090858;23;20396;-89
2023/09/08 05:18:08;;;;;;;23.70;21.60;;;15.80;99.90;;;;;;6093718;23;20952;-88
2023/09/08 05:20:33;;;;;;;23.17;21.08;;;15.90;99.90;;;;;;6094259;23;20473;-89
2023/09/08 05:22:59;;;;;;;22.30;20.40;;;16.00;99.90;;;;;;6068841;23;20376;-90
2023/09/08 05:25:24;;;;;;;21.92;20.02;;;16.00;99.90;;;;;;6070602;23;20380;-90
2023/09/08 05:27:50;;;;;;;22.33;20.33;;;16.00;99.90;;;;;;6092541;23;20947;-88
2023/09/08 05:30:15;;;;;;;22.00;20.00;;;16.10;99.90;;;;;;6069473;23;20444;-91
2023/09/08 05:32:41;;;;;;;22.50;20.60;;;16.20;99.90;;;;;;6068672;23;20373;-87
2023/09/08 05:35:07;;;;;;;21.30;19.40;;;16.20;99.90;;;;;;6070557;23;20964;-89
2023/09/08 05:37:33;;;;;;;21.33;19.42;;;16.30;99.90;;;;;;6069077;23;20376;-89
2023/09/08 05:39:58;;;;;;;20.90;19.00;;;16.40;99.90;;;;;;6092805;23;20381;-90
2023/09/08 05:42:24;;;;;;;20.97;19.17;;;16.60;99.90;;;;;;6093907;23;20376;-90
2023/09/08 05:44:50;;;;;;;21.70;19.70;;;16.50;99.90;;;;;;6093160;23;20411;-90
2023/09/08 05:47:15;;;;;;;19.20;17.40;;;16.70;99.90;;;;;;6070028;23;20376;-90
2023/09/08 05:49:41;;;;;;;19.67;17.93;;;16.70;99.90;;;;;;6092736;23;20428;-91
2023/09/08 05:52:06;;;;;;;19.90;18.20;;;17.10;99.90;;;;;;6070396;23;20377;-89
2023/09/08 05:54:32;;;;;;;19.27;17.58;;;16.90;99.90;;;;;;6092958;23;20521;-90
2023/09/08 05:56:58;;;;;;;19.33;17.55;;;17.10;99.90;;;;;;6070170;23;20377;-91
2023/09/08 05:59:23;;;;;;;18.20;16.70;;;17.10;99.90;;;;;;6069819;23;20385;-89
2023/09/08 06:01:49;;;;;;;17.75;16.02;;;17.60;99.90;;;;;;6090718;23;20428;-90
2023/09/08 06:04:15;;;;;;;19.13;17.30;;;17.70;99.90;;;;;;6092896;23;20471;-91
2023/09/08 06:06:41;;;;;;;18.40;16.70;;;17.50;99.90;;;;;;6092059;23;20770;-90
2023/09/08 06:09:08;;;;;;;17.23;15.63;;;17.60;99.90;;;;;;6070380;23;20377;-89
2023/09/08 06:11:34;;;;;;;17.17;15.65;;;17.70;99.90;;;;;;6092297;23;20698;-89
2023/09/08 06:14:00;;;;;;;16.75;15.25;;;18.20;99.90;;;;;;6093672;23;20400;-89
2023/09/08 06:16:26;;;;;;;16.87;15.47;;;18.40;99.90;;;;;;6068902;23;20384;-89
2023/09/08 06:18:52;;;;;;;17.05;15.55;;;18.40;99.90;;;;;;6093818;23;20377;-90
2023/09/08 06:21:17;;;;;;;17.05;15.55;;;18.10;99.90;;;;;;6094023;23;20379;-89
2023/09/08 06:23:43;;;;;;;16.67;15.27;;;18.00;99.90;;;;;;6092217;23;20388;-90
2023/09/08 06:26:08;;;;;;;17.25;15.70;;;18.40;99.90;;;;;;6093890;23;20373;-91
2023/09/08 06:28:35;;;;;;;16.43;14.83;;;18.50;99.90;;;;;;6067514;23;20467;-90
2023/09/08 06:31:01;;;;;;;16.20;14.83;;;18.60;99.90;;;;;;6093998;23;20456;-91
2023/09/08 06:33:27;;;;;;;16.45;14.82;;;18.70;99.90;;;;;;6092545;23;20373;-89
2023/09/08 06:35:53;;;;;;;15.52;14.13;;;18.80;99.90;;;;;;6069813;23;20403;-89
2023/09/08 06:38:19;;;;;;;16.25;14.82;;;19.00;99.90;;;;;;6069507;23;20710;-90
2023/09/08 06:40:45;;;;;;;14.98;13.77;;;19.10;99.90;;;;;;6092728;23;20384;-90
2023/09/08 06:43:10;;;;;;;16.13;14.73;;;19.20;99.90;;;;;;6118291;23;20910;-90
2023/09/08 06:45:39;;;;;;;15.90;14.40;;;19.30;99.90;;;;;;6092437;23;20460;-88
2023/09/08 06:48:05;;;;;;;15.90;14.48;;;19.60;99.90;;;;;;6070079;23;20463;-91
2023/09/08 06:50:30;;;;;;;15.68;14.35;;;19.50;99.90;;;;;;6092026;23;20407;-91
2023/09/08 06:52:56;;;;;;;15.47;14.03;;;19.80;99.90;;;;;;6070299;23;20376;-89
2023/09/08 06:55:21;;;;;;;15.30;13.95;;;19.80;99.90;;;;;;6092909;23;20433;-90
2023/09/08 06:57:47;;;;;;;15.20;13.80;;;20.20;99.90;;;;;;6093382;23;20447;-90
2023/09/08 07:00:13;;;;;;;14.88;13.57;;;20.00;99.90;;;;;;6069460;23;20846;-90
2023/09/08 07:02:39;;;;;;;14.20;12.88;;;20.10;99.90;;;;;;6091949;23;20368;-90
2023/09/08 07:05:07;;;;;;;14.18;12.88;;;20.50;99.90;;;;;;6069571;23;20392;-89
2023/09/08 07:07:36;;;;;;;14.88;13.48;;;20.30;99.90;;;;;;6067968;23;20853;-89
2023/09/08 07:10:06;;;;;;;13.52;12.32;;;20.40;99.90;;;;;;6065570;23;20416;-90
2023/09/08 07:12:31;;;;;;;14.23;12.93;;;20.50;99.90;;;;;;6067843;23;20411;-90
2023/09/08 07:14:58;;;;;;;13.57;12.30;;;20.60;99.90;;;;;;6092851;23;20404;-89
2023/09/08 07:17:23;;;;;;;13.68;12.43;;;20.70;99.90;;;;;;6093270;23;20687;-89
2023/09/08 07:19:50;;;;;;;13.13;11.87;;;20.90;99.90;;;;;;6068140;23;20384;-90
2023/09/08 07:22:15;;;;;;;13.25;12.13;;;21.00;99.90;;;;;;6069329;23;20468;-89
2023/09/08 07:24:41;;;;;;;13.30;12.10;;;21.10;99.90;;;;;;6092104;23;20476;-89
2023/09/08 07:27:07;;;;;;;12.57;11.33;;;21.40;99.90;;;;;;6069467;23;20385;-90
2023/09/08 07:29:33;;;;;;;13.27;12.05;;;21.40;99.90;;;;;;6091465;23;20379;-90
2023/09/08 07:31:59;;;;;;;11.73;10.73;;;21.50;99.90;;;;;;6093138;23;20496;-89
2023/09/08 07:34:25;;;;;;;11.38;10.32;;;21.60;99.90;;;;;;6068422;23;20475;-90
2023/09/08 07:36:50;;;;;;;10.80;9.70;;;21.90;99.90;;;;;;6092746;23;21069;-89
2023/09/08 07:39:16;;;;;;;11.48;10.32;;;22.00;99.90;;;;;;6093031;23;20379;-88
2023/09/08 07:41:42;;;;;;;10.43;9.37;;;21.90;99.90;;;;;;6091228;23;20379;-89
2023/09/08 07:44:07;;;;;;;10.48;9.48;;;22.40;99.90;;;;;;6093050;23;20456;-88
2023/09/08 07:46:33;;;;;;;10.37;9.10;;;22.20;99.90;;;;;;6067160;23;20876;-89
2023/09/08 07:48:59;;;;;;;10.43;9.45;;;22.30;99.90;;;;;;6069050;23;20384;-89
2023/09/08 07:51:26;;;;;;;10.73;9.07;;;22.40;99.90;;;;;;6091588;23;20377;-89
2023/09/08 07:53:53;;;;;;;9.77;8.77;;;22.90;99.90;;;;;;6093146;23;20372;-89
2023/09/08 07:56:19;;;;;;;11.30;9.40;;;22.70;99.90;;;;;;6068759;23;20940;-90
2023/09/08 07:58:45;;;;;;;10.18;8.73;;;22.90;99.90;;;;;;6091554;23;20475;-89
2023/09/08 08:01:13;;;;;;;10.05;9.20;;;23.10;99.90;;;;;;6092715;23;20372;-89
2023/09/08 08:03:38;;;;;;;9.52;8.38;;;22.80;99.90;;;;;;6091056;23;20380;-90
2023/09/08 08:06:05;;;;;;;9.30;8.50;;;23.10;99.90;;;;;;6069227;23;20781;-90
2023/09/08 08:08:31;;;;;;;9.80;8.80;;;23.20;99.90;;;;;;6067220;23;20377;-89
2023/09/08 08:10:57;;;;;;;9.57;8.77;;;23.30;99.90;;;;;;6092878;23;20444;-89
2023/09/08 08:13:22;;;;;;;10.67;8.60;;;23.40;99.90;;;;;;6067439;23;20408;-89
2023/09/08 08:15:49;;;;;;;10.05;8.00;;;23.50;99.90;;;;;;6091723;23;20531;-88
2023/09/08 08:18:15;;;;;;;8.82;8.05;;;23.90;99.90;;;;;;6068759;23;20380;-90
2023/09/08 08:20:41;;;;;;;8.73;7.93;;;24.00;99.90;;;;;;6091268;23;20371;-90
2023/09/08 08:23:07;;;;;;;8.80;7.77;;;23.70;99.00;;;;;;6092891;23;20439;-90
2023/09/08 08:25:34;;;;;;;9.18;8.20;;;23.80;99.50;;;;;;6067143;23;20810;-89
2023/09/08 08:28:00;;;;;;;9.18;7.93;;;23.90;99.90;;;;;;6092958;23;20420;-90
2023/09/08 08:30:27;;;;;;;8.43;7.63;;;24.00;99.50;;;;;;6067081;23;20380;-89
2023/09/08 08:32:53;;;;;;;8.60;7.80;;;24.10;99.00;;;;;;6092305;23;20376;-90
2023/09/08 08:35:19;;;;;;;8.25;7.45;;;24.60;99.90;;;;;;6068601;23;20401;-90
2023/09/08 08:37:45;;;;;;;8.30;7.50;;;24.30;97.80;;;;;;6067586;23;20377;-90
2023/09/08 08:40:14;;;;;;;8.15;7.35;;;24.70;95.30;;;;;;6068752;23;20757;-90
2023/09/08 08:42:40;;;;;;;8.98;8.13;;;24.40;94.30;;;;;;6090851;23;20377;-89
2023/09/08 08:45:07;;;;;;;9.02;8.13;;;24.50;97.20;;;;;;6092819;23;20853;-90
2023/09/08 08:47:33;;;;;;;8.55;7.75;;;24.60;95.50;;;;;;6091113;23;20376;-89
2023/09/08 08:50:01;;;;;;;8.20;7.50;;;25.10;95.00;;;;;;6092292;23;20379;-88
2023/09/08 08:52:28;;;;;;;7.90;7.07;;;24.80;93.20;;;;;;6092071;23;20435;-89
2023/09/08 08:54:54;;;;;;;8.63;7.20;;;24.80;93.80;;;;;;6067397;23;20521;-90
2023/09/08 08:57:23;;;;;;;8.25;7.45;;;24.90;94.30;;;;;;6092512;23;20465;-90
2023/09/08 08:59:51;;;;;;;7.10;6.40;;;25.00;91.40;;;;;;6066448;23;20698;-91
2023/09/08 09:02:18;;;;;;;7.60;6.78;;;25.20;93.80;;;;;;6068585;23;20404;-91
2023/09/08 09:04:44;;;;;;;8.05;6.68;;;25.20;92.00;;;;;;6090998;23;20377;-90
2023/09/08 09:07:10;;;;;;;8.45;6.95;;;25.00;92.70;;;;;;6069003;23;20380;-90
2023/09/08 09:09:36;;;;;;;7.47;6.18;;;25.40;94.60;;;;;;6092277;23;20379;-89
2023/09/08 09:12:02;;;;;;;7.93;7.13;;;25.50;97.80;;;;;;6091401;23;20376;-90
2023/09/08 09:14:33;;;;;;;7.13;6.43;;;25.60;90.90;;;;;;6092003;23;20440;-89
2023/09/08 09:16:59;;;;;;;8.75;7.13;;;25.80;91.50;;;;;;6066770;23;20387;-89
2023/09/08 09:19:27;;;;;;;8.40;7.50;;;25.60;88.10;;;;;;6092741;23;20892;-90
2023/09/08 09:21:57;;;;;;;7.72;7.00;;;25.70;90.20;;;;;;6066598;23;20936;-88
2023/09/08 09:24:43;;;;;;;8.07;7.00;;;26.00;92.40;;;;;;6068534;23;20368;-90
2023/09/08 09:27:10;;;;;;;7.80;6.97;;;25.70;90.00;;;;;;6092068;23;20862;-89
2023/09/08 09:29:50;;;;;;;7.18;6.53;;;25.80;85.20;;;;;;6091284;23;20929;-90
2023/09/08 09:32:16;;;;;;;7.55;6.68;;;25.90;77.30;;;;;;6068329;23;20477;-89
2023/09/08 09:34:53;;;;;;;7.13;6.43;;;25.90;90.10;;;;;;6090824;23;20443;-89
2023/09/08 09:37:19;;;;;;;9.73;6.63;;;26.10;86.60;;;;;;6092959;23;20713;-90
2023/09/08 09:39:52;;;;;;;7.20;6.50;;;26.40;83.40;;;;;;6066908;23;20372;-89
2023/09/08 09:42:19;;;;;;;7.27;6.13;;;26.30;89.50;;;;;;6067456;23;20758;-88
2023/09/08 09:44:47;;;;;;;7.10;5.82;;;26.50;83.50;;;;;;6068351;23;20476;-91
2023/09/08 09:47:20;;;;;;;7.18;5.45;;;26.60;71.10;;;;;;6070673;23;20384;-96
2023/09/08 09:49:47;;;;;;;8.30;6.10;;;26.70;77.90;;;;;;6074167;23;20446;-94
2023/09/08 09:52:13;;;;;;;6.28;5.68;;;26.80;77.90;;;;;;6069159;23;20376;-94
2023/09/08 09:54:46;;;;;;;6.78;5.53;;;27.00;68.20;;;;;;6071753;23;20404;-95
2023/09/08 09:57:15;;;;;;;6.20;5.15;;;27.20;65.90;;;;;;6073222;23;20412;-94
2023/09/08 09:59:41;;;;;;;6.30;5.20;;;27.40;70.80;;;;;;6072046;23;20408;-95
2023/09/08 10:02:16;;;;;;;9.63;5.65;;;27.70;65.60;;;;;;6098711;23;20376;-95
2023/09/08 10:04:43;;;;;;;5.30;4.80;;;28.10;65.40;;;;;;6070921;23;20380;-94
2023/09/08 10:07:09;;;;;;;5.40;4.90;;;28.60;60.00;;;;;;6074562;23;20428;-94
2023/09/08 10:09:38;;;;;;;6.38;4.55;;;29.00;56.60;;;;;;6069956;23;20376;-94
2023/09/08 10:12:05;;;;;;;5.03;4.35;;;29.40;60.30;;;;;;6071541;23;21048;-95
2023/09/08 10:14:35;;;;;;;4.97;4.50;;;29.80;55.30;;;;;;6069377;23;20509;-93
2023/09/08 10:17:02;;;;;;;5.27;4.70;;;30.30;55.50;;;;;;6095898;23;20377;-94
2023/09/08 10:19:28;;;;;;;5.32;4.85;;;30.70;54.40;;;;;;6071860;23;20384;-93
2023/09/08 10:22:03;;;;;;;5.35;4.78;;;31.10;53.00;;;;;;6071645;23;20380;-94
2023/09/08 10:24:32;;;;;;;4.70;4.30;;;31.50;53.60;;;;;;6097247;23;20384;-90
2023/09/08 10:27:14;;;;;;;4.70;4.30;;;31.80;48.40;;;;;;6069415;23;20388;-94
2023/09/08 10:29:40;;;;;;;4.30;3.97;;;32.00;48.60;;;;;;6072379;23;20472;-95
2023/09/08 10:32:08;;;;;;;5.33;4.40;;;32.10;47.60;;;;;;6070530;23;20404;-94
2023/09/08 10:34:36;;;;;;;4.90;3.97;;;32.50;46.30;;;;;;6071910;23;20397;-94
2023/09/08 10:37:02;;;;;;;5.32;4.00;;;32.70;45.80;;;;;;6071883;23;20428;-94
2023/09/08 10:39:37;;;;;;;5.28;4.00;;;32.90;48.00;;;;;;6069806;23;20459;-92
2023/09/08 10:42:19;;;;;;;4.50;3.70;;;33.20;47.00;;;;;;6071347;23;20451;-92
2023/09/08 10:44:56;;;;;;;4.75;3.92;;;33.50;46.90;;;;;;6093341;23;20880;-94
2023/09/08 10:47:54;;;;;;;4.72;4.00;;;33.70;45.00;;;;;;6071720;23;20409;-92
2023/09/08 10:50:29;;;;;;;4.50;4.05;;;33.90;45.80;;;;;;6071839;23;20391;-94
2023/09/08 10:53:16;;;;;;;4.43;3.60;;;34.10;45.00;;;;;;6070328;23;20388;-95
2023/09/08 10:55:48;;;;;;;4.80;3.85;;;34.20;46.80;;;;;;6071643;23;20408;-95
2023/09/08 10:58:39;;;;;;;3.78;3.47;;;34.40;42.80;;;;;;6072073;23;20380;-96
2023/09/08 11:01:05;;;;;;;4.80;3.60;;;34.40;48.10;;;;;;6081558;23;20384;-93
2023/09/08 11:03:37;;;;;;;3.95;3.58;;;34.60;43.00;;;;;;6071470;23;20408;-92
2023/09/08 11:06:03;;;;;;;5.85;3.60;;;34.70;47.90;;;;;;6093307;23;20408;-94
2023/09/08 11:08:29;;;;;;;4.45;3.50;;;34.70;44.70;;;;;;6071981;23;20766;-93
2023/09/08 11:10:56;;;;;;;3.83;3.23;;;34.80;45.50;;;;;;6069109;23;20767;-93
2023/09/08 11:13:22;;;;;;;3.50;3.13;;;35.10;45.50;;;;;;6070627;23;20446;-96
2023/09/08 11:15:50;;;;;;;4.60;3.50;;;35.30;42.70;;;;;;6070664;23;20900;-92
2023/09/08 11:18:26;;;;;;;3.88;3.40;;;35.30;43.20;;;;;;6092749;23;20373;-95
2023/09/08 11:20:53;;;;;;;3.95;3.50;;;35.40;42.10;;;;;;6092261;23;20373;-92
2023/09/08 11:23:19;;;;;;;4.20;3.47;;;35.50;42.70;;;;;;6091855;23;20383;-94
2023/09/08 11:25:45;;;;;;;4.50;3.70;;;35.50;43.60;;;;;;6070240;23;20428;-93
2023/09/08 11:28:15;;;;;;;3.80;3.50;;;35.60;42.40;;;;;;6068483;23;20448;-95
2023/09/08 11:30:41;;;;;;;5.60;3.50;;;35.60;42.90;;;;;;6071086;23;20404;-93
2023/09/08 11:33:24;;;;;;;4.03;3.45;;;35.70;42.20;;;;;;6069581;23;20373;-94
2023/09/08 11:35:54;;;;;;;6.23;3.60;;;35.80;43.30;;;;;;6069681;23;20431;-93
2023/09/08 11:38:27;;;;;;;3.80;3.30;;;36.00;41.20;;;;;;6095169;23;20384;-95
2023/09/08 11:40:58;;;;;;;4.73;3.80;;;36.20;42.80;;;;;;6068930;23;20387;-96
2023/09/08 11:43:24;;;;;;;3.78;3.25;;;36.30;39.70;;;;;;6071341;23;20435;-93
2023/09/08 11:45:50;;;;;;;4.97;3.40;;;36.40;39.20;;;;;;6093762;23;20373;-95
2023/09/08 11:48:16;;;;;;;4.28;3.55;;;36.30;40.20;;;;;;6072257;23;20388;-96
2023/09/08 11:50:45;;;;;;;4.28;3.42;;;36.30;40.40;;;;;;6071339;23;20377;-94
2023/09/08 11:53:11;;;;;;;4.03;3.65;;;36.50;41.10;;;;;;6069454;23;20754;-94
2023/09/08 11:55:37;;;;;;;4.07;3.30;;;36.70;41.00;;;;;;6071891;23;20727;-92
2023/09/08 11:58:03;;;;;;;4.70;3.50;;;36.90;40.70;;;;;;6068688;23;20377;-95
2023/09/08 12:00:29;;;;;;;3.88;3.45;;;37.30;41.00;;;;;;6072021;23;20384;-92
2023/09/08 12:03:08;;;;;;;4.22;3.40;;;37.20;38.20;;;;;;6069267;23;20399;-95
2023/09/08 12:05:34;;;;;;;5.13;3.53;;;37.20;36.90;;;;;;6071780;23;20396;-94
2023/09/08 12:08:04;;;;;;;3.63;3.33;;;37.40;37.70;;;;;;6070056;23;20876;-94
2023/09/08 12:10:37;;;;;;;5.95;3.30;;;37.50;40.80;;;;;;6070270;23;20381;-95
2023/09/08 12:13:03;;;;;;;4.10;3.50;;;37.60;38.30;;;;;;6072949;23;20385;-95
2023/09/08 12:15:36;;;;;;;5.88;3.50;;;37.70;37.40;;;;;;6092651;23;20405;-96
2023/09/08 12:18:04;;;;;;;4.10;3.80;;;37.60;37.50;;;;;;6072132;23;20383;-94
2023/09/08 12:20:31;;;;;;;4.32;3.30;;;37.50;38.40;;;;;;6069177;23;20753;-94
2023/09/08 12:23:01;;;;;;;4.18;3.30;;;37.50;36.30;;;;;;6071294;23;20381;-96
2023/09/08 12:25:27;;;;;;;4.72;3.35;;;37.60;37.80;;;;;;6071978;23;20368;-94
2023/09/08 12:27:54;;;;;;;3.50;3.20;;;37.70;38.70;;;;;;6070464;23;20373;-94
2023/09/08 12:30:21;;;;;;;4.07;3.47;;;37.90;37.00;;;;;;6071926;23;20683;-96
2023/09/08 12:32:51;;;;;;;4.40;3.45;;;37.80;36.20;;;;;;6068903;23;20373;-91
2023/09/08 12:35:24;;;;;;;3.78;3.40;;;38.10;37.80;;;;;;6070507;23;20393;-91